Time;durP1;ratioP1;P1;durP2;ratioP2;P2;SDS_P1;SDS_P2;PMS_P1;PMS_P2;Temp;Humidity;BMP_temperature;BMP_pressure;BME280_temperature;BME280_humidity;BME280_pressure;Samples;Min_cycle;Max_cycle;Signal;HPM_P1;HPM_P2
2022/05/09 03:00:26;;;;;;;16.03;14.60;;;8.80;99.90;;;;;;5912873;23;20180;-75
2022/05/09 03:05:40;;;;;;;19.07;17.67;;;8.70;99.90;;;;;;4986933;28;20276;-74
2022/05/09 03:08:06;;;;;;;24.23;22.43;;;8.70;99.90;;;;;;4975796;28;20173;-74
2022/05/09 03:10:32;;;;;;;21.70;20.07;;;8.60;99.90;;;;;;4972135;28;20221;-74
2022/05/09 03:13:00;;;;;;;18.57;17.00;;;8.60;99.90;;;;;;4971914;28;20239;-74
2022/05/09 03:15:30;;;;;;;18.10;16.67;;;8.70;99.90;;;;;;4973318;28;20188;-75
2022/05/09 03:17:56;;;;;;;18.23;16.53;;;8.60;99.90;;;;;;4978648;28;20188;-74
2022/05/09 03:20:22;;;;;;;19.77;17.80;;;8.60;99.90;;;;;;4990160;28;20175;-74
2022/05/09 03:22:49;;;;;;;18.53;17.13;;;8.60;99.90;;;;;;4991747;28;20191;-74
2022/05/09 03:25:16;;;;;;;21.90;19.97;;;8.60;99.90;;;;;;4994055;23;20236;-78
2022/05/09 03:27:41;;;;;;;17.87;16.27;;;8.60;99.90;;;;;;4970247;28;20556;-77
2022/05/09 03:30:08;;;;;;;18.07;16.60;;;8.60;99.90;;;;;;4970863;28;20272;-76
2022/05/09 03:32:38;;;;;;;18.10;16.70;;;8.50;99.90;;;;;;4972560;28;20216;-78
2022/05/09 03:35:07;;;;;;;26.03;23.90;;;8.50;99.90;;;;;;4954808;28;20265;-73
2022/05/09 03:37:32;;;;;;;31.47;29.37;;;8.40;99.90;;;;;;4951489;28;20182;-73
2022/05/09 03:39:58;;;;;;;28.83;26.90;;;8.40;99.90;;;;;;4951885;29;20185;-73
2022/05/09 03:42:24;;;;;;;25.57;23.60;;;8.30;99.90;;;;;;4951686;28;20545;-73
2022/05/09 03:44:49;;;;;;;23.70;21.83;;;8.30;99.90;;;;;;4951368;28;20207;-73
2022/05/09 03:47:16;;;;;;;25.20;23.33;;;8.30;99.90;;;;;;4951322;29;20177;-73
2022/05/09 03:49:43;;;;;;;24.97;22.97;;;8.30;99.90;;;;;;4951711;28;20183;-72
2022/05/09 03:52:08;;;;;;;21.43;19.90;;;8.30;99.90;;;;;;4950460;29;20243;-73
2022/05/09 03:54:34;;;;;;;23.70;21.97;;;8.30;99.90;;;;;;4950310;28;20241;-73
2022/05/09 03:57:00;;;;;;;27.90;25.73;;;8.30;99.90;;;;;;4951165;28;20205;-72
2022/05/09 03:59:26;;;;;;;24.10;21.97;;;8.30;99.90;;;;;;4950368;28;20190;-74
2022/05/09 04:01:52;;;;;;;22.70;20.90;;;8.30;99.90;;;;;;4951566;29;20560;-74
2022/05/09 04:04:17;;;;;;;32.47;30.13;;;8.40;99.90;;;;;;4949862;29;20214;-74
2022/05/09 04:06:43;;;;;;;32.83;30.63;;;8.30;99.90;;;;;;4949344;28;20189;-74
2022/05/09 04:09:09;;;;;;;56.97;53.60;;;8.30;99.90;;;;;;4950669;28;20200;-74
2022/05/09 04:11:35;;;;;;;32.43;30.20;;;8.30;99.90;;;;;;4950034;29;20202;-74
2022/05/09 04:14:01;;;;;;;28.90;26.90;;;8.40;99.90;;;;;;4950549;28;20229;-73
2022/05/09 04:19:11;;;;;;;30.40;28.13;;;8.30;99.90;;;;;;4931146;29;20197;-74
2022/05/09 04:21:37;;;;;;;36.33;33.77;;;8.40;99.90;;;;;;4931876;29;20186;-73
2022/05/09 04:24:03;;;;;;;31.40;29.40;;;8.40;99.90;;;;;;4893852;29;1151026;-73
2022/05/09 04:26:31;;;;;;;27.13;25.20;;;8.50;99.90;;;;;;4954022;29;20220;-73
2022/05/09 04:28:57;;;;;;;32.90;30.57;;;8.60;99.90;;;;;;4933696;29;20198;-74
2022/05/09 04:31:23;;;;;;;35.97;33.57;;;8.60;99.90;;;;;;4933344;29;20237;-74
2022/05/09 04:33:50;;;;;;;33.07;30.87;;;8.70;99.90;;;;;;4936380;29;20203;-74
2022/05/09 04:36:16;;;;;;;39.37;36.47;;;8.80;99.90;;;;;;4935047;29;20209;-74
2022/05/09 04:38:43;;;;;;;32.97;30.07;;;8.80;99.90;;;;;;4934970;29;20186;-74
2022/05/09 04:41:10;;;;;;;19.23;17.77;;;9.00;99.90;;;;;;4936333;29;20183;-74
2022/05/09 04:43:37;;;;;;;19.53;18.03;;;9.00;99.90;;;;;;4936199;29;20298;-74
2022/05/09 04:46:04;;;;;;;24.23;22.43;;;9.10;99.90;;;;;;4950845;29;20187;-74
2022/05/09 04:48:31;;;;;;;20.40;18.70;;;9.20;99.90;;;;;;4950897;28;20591;-74
2022/05/09 04:50:57;;;;;;;19.77;17.67;;;9.30;99.90;;;;;;4936063;28;20217;-74
2022/05/09 04:53:24;;;;;;;16.80;15.27;;;9.40;99.90;;;;;;4952555;28;20183;-74
2022/05/09 04:55:50;;;;;;;18.30;15.23;;;9.50;99.90;;;;;;4955294;28;20182;-74
2022/05/09 04:58:19;;;;;;;15.47;13.83;;;9.70;99.90;;;;;;4955413;29;20650;-73
2022/05/09 05:00:45;;;;;;;16.17;14.47;;;9.80;99.90;;;;;;4955392;28;20743;-72
2022/05/09 05:03:11;;;;;;;17.07;15.43;;;10.00;99.90;;;;;;4955069;28;20555;-73
2022/05/09 05:05:38;;;;;;;31.30;29.00;;;10.20;99.90;;;;;;4954962;29;20197;-73
2022/05/09 05:08:04;;;;;;;21.63;19.90;;;10.60;99.90;;;;;;4954656;29;20451;-72
2022/05/09 05:10:30;;;;;;;29.20;27.13;;;10.90;99.90;;;;;;4954911;28;20186;-73
2022/05/09 05:12:58;;;;;;;17.57;16.23;;;11.40;99.90;;;;;;4953505;29;20185;-73
2022/05/09 05:15:28;;;;;;;28.03;26.23;;;11.90;99.90;;;;;;4953649;28;20415;-73
2022/05/09 05:17:53;;;;;;;21.00;19.43;;;12.50;99.90;;;;;;4966414;28;20182;-72
2022/05/09 05:20:19;;;;;;;14.60;13.20;;;12.90;99.90;;;;;;4955267;29;20653;-73
2022/05/09 05:22:47;;;;;;;12.97;11.80;;;13.20;99.90;;;;;;4953456;29;20228;-73
2022/05/09 05:25:16;;;;;;;12.77;11.80;;;13.70;99.90;;;;;;4954617;28;20633;-73
2022/05/09 05:27:42;;;;;;;13.50;12.47;;;14.10;99.90;;;;;;4954186;28;20277;-73
2022/05/09 05:30:09;;;;;;;12.57;11.47;;;14.40;99.90;;;;;;4954785;29;20292;-73
2022/05/09 05:32:37;;;;;;;13.07;11.73;;;14.80;99.90;;;;;;4954590;28;20218;-73
2022/05/09 05:35:12;;;;;;;12.00;11.00;;;15.10;99.90;;;;;;4954220;28;20197;-72
2022/05/09 05:37:39;;;;;;;11.60;10.60;;;15.40;99.90;;;;;;4953497;29;20181;-71
2022/05/09 05:40:05;;;;;;;11.30;10.40;;;15.60;99.90;;;;;;4953043;29;20212;-71
2022/05/09 05:42:31;;;;;;;11.90;10.90;;;15.80;99.90;;;;;;4954205;28;20178;-71
2022/05/09 05:44:57;;;;;;;14.70;13.67;;;16.10;99.90;;;;;;4954182;28;20202;-71
2022/05/09 05:47:23;;;;;;;20.33;18.90;;;16.30;99.90;;;;;;4953811;29;20186;-72
2022/05/09 05:49:49;;;;;;;21.40;19.80;;;16.60;99.90;;;;;;4954136;28;20216;-72
2022/05/09 05:52:16;;;;;;;24.80;22.77;;;16.60;99.90;;;;;;4952969;29;20717;-70
2022/05/09 05:54:44;;;;;;;19.17;17.87;;;16.80;99.90;;;;;;4953988;28;20198;-71
2022/05/09 05:57:22;;;;;;;13.23;11.93;;;17.00;99.90;;;;;;4953550;28;20244;-71
2022/05/09 05:59:56;;;;;;;11.30;10.30;;;17.40;99.90;;;;;;4954463;28;20188;-71
2022/05/09 06:02:23;;;;;;;13.83;12.83;;;17.70;99.90;;;;;;4961496;29;20672;-71
2022/05/09 06:04:49;;;;;;;21.17;19.67;;;17.80;99.90;;;;;;4956591;28;20209;-72
2022/05/09 06:07:16;;;;;;;36.33;34.03;;;18.10;99.90;;;;;;4953173;28;20193;-71
2022/05/09 06:09:44;;;;;;;23.10;21.70;;;18.10;99.90;;;;;;4955432;28;20181;-73
2022/05/09 06:12:12;;;;;;;19.17;17.97;;;18.30;99.90;;;;;;4953728;29;20222;-72
2022/05/09 06:14:38;;;;;;;12.63;11.73;;;18.70;99.90;;;;;;4954159;28;20232;-72
2022/05/09 06:17:05;;;;;;;13.17;12.17;;;19.10;99.90;;;;;;4953404;29;20193;-71
2022/05/09 06:19:31;;;;;;;13.13;12.13;;;19.20;99.90;;;;;;4944127;28;20209;-72
2022/05/09 06:21:58;;;;;;;14.93;13.73;;;19.40;99.90;;;;;;4933188;29;20194;-73
2022/05/09 06:24:24;;;;;;;15.47;13.90;;;19.50;99.90;;;;;;4933410;28;20222;-73
2022/05/09 06:26:50;;;;;;;18.20;16.67;;;19.70;99.90;;;;;;4932377;29;20186;-73
2022/05/09 06:29:16;;;;;;;19.13;17.93;;;19.90;99.90;;;;;;4933282;29;20532;-72
2022/05/09 06:31:42;;;;;;;19.20;17.70;;;20.10;99.90;;;;;;4934379;29;20218;-72
2022/05/09 06:34:11;;;;;;;18.98;17.77;;;20.30;99.90;;;;;;4934887;29;20209;-71
2022/05/09 06:36:42;;;;;;;15.17;13.60;;;20.50;99.90;;;;;;4937309;29;20280;-70
2022/05/09 06:39:09;;;;;;;12.87;11.60;;;20.80;99.90;;;;;;4933132;29;20210;-70
2022/05/09 06:41:35;;;;;;;11.35;10.45;;;21.10;99.90;;;;;;4942337;29;20189;-70
2022/05/09 06:44:01;;;;;;;10.15;9.25;;;21.40;99.90;;;;;;4954922;28;20296;-70
2022/05/09 06:46:27;;;;;;;10.50;9.70;;;21.40;99.90;;;;;;4955132;29;20609;-71
2022/05/09 06:48:53;;;;;;;10.50;9.73;;;21.00;99.90;;;;;;4952786;29;20186;-72
2022/05/09 06:51:19;;;;;;;9.83;9.13;;;20.80;99.90;;;;;;4952688;29;20233;-73
2022/05/09 06:53:44;;;;;;;11.25;10.13;;;20.80;99.90;;;;;;4951311;28;20205;-70
2022/05/09 06:56:11;;;;;;;8.98;8.32;;;21.20;99.90;;;;;;4952971;29;20548;-70
2022/05/09 06:58:37;;;;;;;10.13;9.32;;;21.70;99.90;;;;;;4952766;28;20265;-71
2022/05/09 07:01:15;;;;;;;11.32;10.45;;;21.90;99.90;;;;;;4951629;29;20185;-72
2022/05/09 07:03:41;;;;;;;11.80;10.90;;;22.30;99.90;;;;;;4951760;29;20209;-71
2022/05/09 07:06:07;;;;;;;11.27;10.38;;;22.30;99.90;;;;;;4952821;28;20193;-71
2022/05/09 07:08:33;;;;;;;11.05;10.27;;;22.10;99.90;;;;;;4952171;29;20185;-71
2022/05/09 07:10:59;;;;;;;11.82;11.02;;;22.30;99.90;;;;;;4955325;28;20208;-72
2022/05/09 07:13:25;;;;;;;12.20;11.40;;;22.50;99.90;;;;;;4952633;28;20189;-71
2022/05/09 07:15:54;;;;;;;10.15;9.43;;;22.90;99.90;;;;;;4952743;29;20177;-72
2022/05/09 07:18:19;;;;;;;10.60;9.70;;;23.10;99.90;;;;;;4952373;29;20196;-71
2022/05/09 07:20:45;;;;;;;10.90;10.02;;;23.20;99.90;;;;;;4951278;29;20649;-71
2022/05/09 07:23:11;;;;;;;10.35;9.65;;;23.60;99.90;;;;;;4952656;29;20268;-71
2022/05/09 07:25:38;;;;;;;11.18;10.35;;;23.40;99.90;;;;;;4951525;29;20201;-71
2022/05/09 07:28:05;;;;;;;10.68;9.88;;;23.10;99.90;;;;;;4952088;28;20614;-71
2022/05/09 07:30:31;;;;;;;11.43;10.43;;;23.30;99.90;;;;;;4952462;28;20181;-72
2022/05/09 07:32:58;;;;;;;13.93;12.48;;;23.60;99.90;;;;;;4951373;29;20184;-71
2022/05/09 07:35:24;;;;;;;11.27;10.23;;;23.60;99.90;;;;;;4951208;28;20194;-71
2022/05/09 07:37:50;;;;;;;10.52;9.52;;;23.50;99.90;;;;;;4952287;28;20181;-71
2022/05/09 07:40:19;;;;;;;9.48;8.65;;;23.60;99.90;;;;;;4952886;29;20591;-71
2022/05/09 07:42:46;;;;;;;8.98;8.23;;;24.10;99.10;;;;;;4952279;28;20190;-71
2022/05/09 07:45:15;;;;;;;8.73;8.05;;;24.10;98.20;;;;;;4952358;28;20289;-71
2022/05/09 07:47:41;;;;;;;8.73;7.93;;;24.30;97.60;;;;;;4952038;29;20198;-70
2022/05/09 07:50:09;;;;;;;10.00;9.10;;;24.40;96.50;;;;;;4952180;29;20193;-71
2022/05/09 07:52:34;;;;;;;9.32;8.55;;;24.40;96.50;;;;;;4952376;29;20645;-71
2022/05/09 07:55:00;;;;;;;11.90;10.88;;;24.50;97.00;;;;;;4951414;28;20201;-71
2022/05/09 07:57:27;;;;;;;9.43;8.70;;;24.60;96.10;;;;;;4951490;29;20248;-72
2022/05/09 07:59:52;;;;;;;11.63;10.93;;;24.60;96.30;;;;;;4950902;28;20189;-71
2022/05/09 08:02:18;;;;;;;10.52;9.57;;;24.60;95.40;;;;;;4951349;29;20181;-72
2022/05/09 08:04:44;;;;;;;14.52;13.40;;;24.70;96.00;;;;;;4953661;28;20209;-72
2022/05/09 08:07:10;;;;;;;13.15;12.18;;;25.10;93.60;;;;;;4956692;29;20630;-72
2022/05/09 08:09:35;;;;;;;15.57;14.63;;;25.10;93.70;;;;;;4954997;29;20186;-71
2022/05/09 08:12:03;;;;;;;13.80;12.48;;;25.10;93.80;;;;;;4955914;29;20702;-72
2022/05/09 08:14:29;;;;;;;14.45;13.35;;;25.20;93.30;;;;;;4956040;28;20205;-72
2022/05/09 08:16:56;;;;;;;13.73;12.52;;;25.10;93.00;;;;;;4955713;29;20181;-72
2022/05/09 08:19:23;;;;;;;15.00;13.93;;;24.90;92.30;;;;;;4955123;28;20556;-72
2022/05/09 08:21:50;;;;;;;12.90;12.00;;;25.20;93.30;;;;;;4957327;29;20186;-72
2022/05/09 08:24:17;;;;;;;12.73;11.80;;;25.40;92.70;;;;;;4958744;28;20736;-72
2022/05/09 08:26:43;;;;;;;10.45;9.75;;;25.60;92.40;;;;;;4963626;28;20193;-72
2022/05/09 08:29:09;;;;;;;10.57;9.77;;;25.40;91.80;;;;;;4956067;29;20205;-72
2022/05/09 08:31:35;;;;;;;13.00;12.10;;;25.30;91.80;;;;;;4955902;28;20325;-72
2022/05/09 08:34:01;;;;;;;11.18;10.35;;;25.20;92.10;;;;;;4955743;29;20198;-72
2022/05/09 08:39:13;;;;;;;10.60;9.75;;;24.90;93.10;;;;;;4955626;29;20233;-71
2022/05/09 08:41:48;;;;;;;11.10;10.40;;;24.90;91.70;;;;;;4955648;28;20646;-71
2022/05/09 08:44:35;;;;;;;11.95;11.07;;;25.40;91.50;;;;;;4955482;29;20201;-72
2022/05/09 08:47:13;;;;;;;14.02;13.23;;;25.70;90.70;;;;;;4955395;29;20181;-72
2022/05/09 08:49:50;;;;;;;14.93;13.85;;;25.90;90.80;;;;;;4955234;28;20196;-72
2022/05/09 08:52:25;;;;;;;13.02;12.18;;;25.90;88.60;;;;;;4955251;29;20256;-72
2022/05/09 08:54:53;;;;;;;11.57;10.82;;;25.80;88.60;;;;;;4955092;28;20723;-71
2022/05/09 08:57:25;;;;;;;12.07;11.30;;;26.00;87.80;;;;;;4953726;29;20178;-72
2022/05/09 09:00:12;;;;;;;12.43;11.55;;;26.00;87.80;;;;;;4955351;28;20182;-72
2022/05/09 09:02:49;;;;;;;10.98;10.27;;;26.30;86.90;;;;;;4955096;28;20563;-73
2022/05/09 09:05:21;;;;;;;14.30;13.27;;;26.10;85.10;;;;;;4955414;28;20218;-73
2022/05/09 09:07:59;;;;;;;13.32;12.52;;;26.40;85.10;;;;;;4957254;28;20269;-72
2022/05/09 09:10:30;;;;;;;12.45;11.50;;;26.70;83.90;;;;;;4959050;29;20193;-72
2022/05/09 09:13:03;;;;;;;12.13;11.15;;;26.70;83.40;;;;;;4954771;28;20178;-73
2022/05/09 09:16:03;;;;;;;11.38;10.25;;;26.80;83.40;;;;;;4953675;28;20205;-72
2022/05/09 09:18:40;;;;;;;8.48;7.85;;;27.40;81.60;;;;;;4954013;28;20574;-73
2022/05/09 09:21:15;;;;;;;8.60;7.85;;;27.20;79.90;;;;;;4954782;29;20665;-72
2022/05/09 09:24:05;;;;;;;11.63;10.77;;;26.30;80.10;;;;;;4976942;23;20220;-77
2022/05/09 09:26:49;;;;;;;12.95;11.90;;;26.10;83.50;;;;;;4966749;29;20193;-78
2022/05/09 09:30:10;;;;;;;12.23;11.35;;;26.10;84.80;;;;;;4958728;29;20189;-77
2022/05/09 09:32:42;;;;;;;8.55;7.95;;;26.70;82.90;;;;;;4955182;29;20233;-77
2022/05/09 09:35:25;;;;;;;9.52;8.73;;;26.80;81.90;;;;;;4965861;28;20226;-77
2022/05/09 09:38:07;;;;;;;9.13;8.48;;;27.30;80.20;;;;;;4948965;29;20190;-77
2022/05/09 09:40:33;;;;;;;9.75;8.95;;;28.30;80.90;;;;;;4964154;29;20266;-77
2022/05/09 09:42:59;;;;;;;10.48;9.70;;;28.90;73.10;;;;;;4948272;29;20183;-78
2022/05/09 09:45:28;;;;;;;13.23;12.10;;;28.60;75.50;;;;;;4947721;29;20206;-77
2022/05/09 09:48:09;;;;;;;7.72;7.22;;;28.70;71.70;;;;;;4946790;29;20193;-78
2022/05/09 09:50:36;;;;;;;7.47;6.97;;;29.20;67.70;;;;;;4958328;29;20197;-76
2022/05/09 09:53:09;;;;;;;7.88;7.38;;;28.10;66.80;;;;;;4948305;29;20182;-77
2022/05/09 09:55:39;;;;;;;11.35;10.57;;;27.40;69.20;;;;;;4944984;29;20202;-77
2022/05/09 09:58:27;;;;;;;16.10;15.15;;;27.00;70.80;;;;;;4947268;29;20197;-76
2022/05/09 10:01:21;;;;;;;8.77;8.07;;;26.90;72.60;;;;;;4936748;29;20215;-77
2022/05/09 10:04:02;;;;;;;7.00;6.43;;;26.40;72.70;;;;;;4950988;29;20191;-76
2022/05/09 10:06:29;;;;;;;7.25;6.85;;;25.80;76.70;;;;;;4936323;29;20186;-77
2022/05/09 10:09:00;;;;;;;7.10;6.53;;;26.00;76.40;;;;;;4930954;29;20190;-76
2022/05/09 10:11:29;;;;;;;6.90;6.45;;;26.30;75.00;;;;;;4917349;29;20218;-76
2022/05/09 10:13:59;;;;;;;8.32;7.63;;;26.60;74.20;;;;;;4939489;28;20218;-77
2022/05/09 10:16:30;;;;;;;11.23;10.55;;;26.70;73.40;;;;;;4933486;29;20182;-76
2022/05/09 10:18:58;;;;;;;7.82;7.10;;;26.60;71.20;;;;;;4933515;29;20487;-76
2022/05/09 10:24:48;;;;;;;8.40;7.90;;;26.60;74.10;;;;;;4934027;29;20317;-76
2022/05/09 10:27:23;;;;;;;10.20;9.45;;;27.20;70.30;;;;;;4932145;29;20194;-76
2022/05/09 10:29:51;;;;;;;10.10;9.50;;;27.40;68.60;;;;;;4934143;29;20376;-76
2022/05/09 10:32:42;;;;;;;10.95;10.15;;;27.70;67.80;;;;;;4946522;29;20214;-74
2022/05/09 10:35:19;;;;;;;6.93;6.32;;;28.30;67.30;;;;;;4933725;29;20261;-76
2022/05/09 10:38:10;;;;;;;8.13;7.55;;;29.20;63.10;;;;;;4932952;29;20601;-75
2022/05/09 10:40:54;;;;;;;7.47;6.88;;;29.80;60.00;;;;;;4934199;29;20186;-76
2022/05/09 10:43:29;;;;;;;6.03;5.65;;;29.20;59.80;;;;;;4934049;29;20179;-76
2022/05/09 10:45:55;;;;;;;5.80;5.30;;;29.30;58.80;;;;;;4935289;29;20265;-76
2022/05/09 10:48:26;;;;;;;6.03;5.63;;;29.60;59.20;;;;;;4932408;29;20181;-76
2022/05/09 10:51:09;;;;;;;6.75;6.25;;;29.60;57.10;;;;;;4934132;29;20582;-77
2022/05/09 10:53:45;;;;;;;7.07;6.30;;;29.30;59.00;;;;;;4932582;29;20214;-77
2022/05/09 10:56:20;;;;;;;7.32;6.75;;;28.10;59.10;;;;;;4935355;29;20212;-76
2022/05/09 10:58:59;;;;;;;7.78;7.13;;;26.70;63.30;;;;;;4934643;29;20185;-75
2022/05/09 11:01:47;;;;;;;11.55;10.65;;;26.00;64.90;;;;;;4935204;29;20197;-76
2022/05/09 11:04:14;;;;;;;9.15;8.65;;;25.90;64.50;;;;;;4934581;29;20217;-76
2022/05/09 11:07:27;;;;;;;8.10;7.45;;;26.50;64.20;;;;;;4933581;29;20193;-75
2022/05/09 11:10:06;;;;;;;7.45;6.95;;;28.00;60.10;;;;;;4889232;29;20194;-76
2022/05/09 11:12:32;;;;;;;8.20;7.40;;;28.60;57.40;;;;;;4948472;29;20217;-75
2022/05/09 11:15:19;;;;;;;6.75;6.15;;;29.20;56.70;;;;;;4932025;29;20257;-76
2022/05/09 11:18:23;;;;;;;6.68;6.20;;;29.40;56.50;;;;;;4932195;29;20191;-76
2022/05/09 11:21:02;;;;;;;7.78;6.68;;;28.20;58.20;;;;;;4932704;29;20614;-74
2022/05/09 11:23:35;;;;;;;7.65;6.95;;;27.30;59.80;;;;;;4933719;29;20217;-75
2022/05/09 11:26:50;;;;;;;6.97;6.47;;;27.90;58.90;;;;;;4933665;29;20190;-76
2022/05/09 11:29:22;;;;;;;6.70;6.20;;;28.80;57.40;;;;;;4925469;29;20616;-75
2022/05/09 11:32:16;;;;;;;6.22;5.72;;;28.70;57.20;;;;;;4934092;29;20214;-76
2022/05/09 11:34:51;;;;;;;7.07;6.63;;;27.40;59.00;;;;;;4933594;29;20719;-76
2022/05/09 11:37:19;;;;;;;6.57;6.18;;;28.00;58.20;;;;;;4931744;29;20182;-76
2022/05/09 11:40:14;;;;;;;6.78;6.38;;;28.30;57.30;;;;;;4934004;29;20178;-76
2022/05/09 11:45:51;;;;;;;7.85;7.07;;;27.10;59.10;;;;;;4936576;29;20610;-75
2022/05/09 11:48:39;;;;;;;11.13;10.40;;;26.00;61.30;;;;;;4937540;29;20190;-75
2022/05/09 11:51:37;;;;;;;10.50;9.90;;;25.50;62.50;;;;;;4936629;29;20208;-74
2022/05/09 11:54:11;;;;;;;9.10;8.50;;;25.50;63.50;;;;;;4938619;28;20211;-74
2022/05/09 11:56:39;;;;;;;7.85;7.32;;;25.60;62.60;;;;;;4938738;29;20302;-74
2022/05/09 11:59:19;;;;;;;8.38;7.72;;;25.70;62.90;;;;;;4939866;29;20198;-74
2022/05/09 12:02:03;;;;;;;7.82;7.28;;;25.50;63.50;;;;;;4937704;29;20186;-74
2022/05/09 12:04:44;;;;;;;9.07;8.27;;;25.30;64.50;;;;;;4934692;29;20237;-74
2022/05/09 12:07:21;;;;;;;8.02;7.32;;;25.20;64.70;;;;;;4936633;29;20655;-74
2022/05/09 12:10:03;;;;;;;7.15;6.65;;;25.10;65.30;;;;;;4952327;29;20189;-74
2022/05/09 12:12:41;;;;;;;7.68;7.18;;;25.20;66.10;;;;;;4945009;29;20301;-74
2022/05/09 12:15:33;;;;;;;8.63;8.10;;;26.70;63.40;;;;;;4936770;29;20198;-75
2022/05/09 12:18:00;;;;;;;7.63;6.82;;;28.40;58.40;;;;;;4935383;29;20183;-75
2022/05/09 12:20:29;;;;;;;6.68;6.28;;;29.10;58.30;;;;;;4935851;29;20734;-76
2022/05/09 12:22:57;;;;;;;6.18;5.68;;;29.90;56.60;;;;;;4936393;29;20187;-74
2022/05/09 12:25:43;;;;;;;7.82;7.32;;;30.60;55.40;;;;;;4936042;29;20253;-74
2022/05/09 12:28:30;;;;;;;9.60;9.10;;;31.00;54.40;;;;;;4935223;29;20217;-74
2022/05/09 12:31:30;;;;;;;13.98;13.18;;;30.70;52.90;;;;;;4935601;29;20560;-74
2022/05/09 12:33:56;;;;;;;7.18;6.47;;;29.80;53.90;;;;;;4936343;28;20281;-74
2022/05/09 12:36:29;;;;;;;8.13;7.07;;;27.80;57.10;;;;;;4936942;29;20194;-74
2022/05/09 12:39:01;;;;;;;8.15;7.65;;;26.90;59.30;;;;;;4935286;29;20238;-74
2022/05/09 12:41:48;;;;;;;10.50;9.75;;;26.30;61.90;;;;;;4935171;29;20241;-74
2022/05/09 12:44:38;;;;;;;6.93;6.53;;;26.50;61.60;;;;;;4936216;28;20306;-74
2022/05/09 12:47:08;;;;;;;6.28;5.68;;;28.00;58.70;;;;;;4936179;29;20565;-75
2022/05/09 12:49:42;;;;;;;6.72;5.93;;;27.80;58.70;;;;;;4936097;28;20650;-75
2022/05/09 12:52:10;;;;;;;6.88;6.38;;;27.80;58.40;;;;;;4935431;29;20213;-75
2022/05/09 12:54:39;;;;;;;6.57;6.07;;;28.20;57.90;;;;;;4936105;29;20705;-75
2022/05/09 12:57:05;;;;;;;7.03;6.47;;;27.70;57.90;;;;;;4936024;29;20277;-75
2022/05/09 12:59:49;;;;;;;6.32;5.90;;;28.20;58.50;;;;;;4936024;28;20179;-75
2022/05/09 13:02:24;;;;;;;8.20;7.60;;;29.90;54.70;;;;;;4938877;29;20285;-82
2022/05/09 13:04:52;;;;;;;8.07;7.55;;;29.90;52.70;;;;;;4939248;29;20232;-76
2022/05/09 13:07:19;;;;;;;9.43;8.82;;;29.40;54.40;;;;;;4936073;29;20655;-75
2022/05/09 13:09:55;;;;;;;7.53;6.93;;;29.20;53.80;;;;;;4934603;29;20228;-75
2022/05/09 13:12:32;;;;;;;5.90;5.45;;;28.30;55.40;;;;;;4936012;29;20225;-75
2022/05/09 13:15:11;;;;;;;7.70;7.20;;;27.20;56.80;;;;;;4935726;29;20709;-74
2022/05/09 13:17:45;;;;;;;6.55;5.88;;;26.70;58.80;;;;;;4934352;29;20280;-75
2022/05/09 13:20:19;;;;;;;5.22;4.82;;;28.10;57.00;;;;;;4935105;29;20296;-75
2022/05/09 13:22:51;;;;;;;6.22;5.63;;;28.80;54.60;;;;;;4936713;29;20186;-76
2022/05/09 13:25:37;;;;;;;8.07;7.25;;;29.50;53.50;;;;;;4934264;29;20584;-76
2022/05/09 13:28:06;;;;;;;8.50;8.00;;;29.90;52.80;;;;;;4934691;29;20213;-76
2022/05/09 13:30:38;;;;;;;12.20;11.55;;;30.50;52.70;;;;;;4934967;29;20718;-75
2022/05/09 13:33:04;;;;;;;12.00;11.32;;;31.20;51.20;;;;;;4935631;29;20218;-75
2022/05/09 13:35:37;;;;;;;14.23;13.40;;;30.90;50.90;;;;;;4952349;28;20198;-77
2022/05/09 13:38:24;;;;;;;12.27;11.38;;;30.50;51.30;;;;;;4936106;29;20186;-76
2022/05/09 13:40:53;;;;;;;8.93;8.32;;;31.30;50.20;;;;;;4935008;29;20182;-76
2022/05/09 13:43:26;;;;;;;6.57;6.18;;;31.70;50.10;;;;;;4934557;29;20222;-76
2022/05/09 13:46:04;;;;;;;6.57;6.18;;;31.60;49.50;;;;;;4935594;29;20293;-76
2022/05/09 13:48:31;;;;;;;6.18;5.82;;;32.10;49.70;;;;;;4934841;29;20210;-76
2022/05/09 13:50:57;;;;;;;6.80;6.40;;;31.80;48.00;;;;;;4937075;29;20205;-74
2022/05/09 13:53:27;;;;;;;6.13;5.63;;;31.30;48.30;;;;;;4937244;29;20187;-75
2022/05/09 13:55:57;;;;;;;10.88;10.27;;;30.20;49.80;;;;;;4935376;29;20202;-75
2022/05/09 13:58:26;;;;;;;15.75;14.90;;;29.40;51.90;;;;;;4932437;29;20186;-75
2022/05/09 14:00:53;;;;;;;11.85;11.15;;;29.60;51.90;;;;;;4932789;29;20182;-75
2022/05/09 14:03:30;;;;;;;14.15;13.07;;;30.70;50.30;;;;;;4932522;29;20231;-75
2022/05/09 14:05:58;;;;;;;13.63;12.65;;;30.30;51.10;;;;;;4933400;29;20189;-75
2022/05/09 14:08:26;;;;;;;10.27;9.68;;;30.70;50.60;;;;;;4933104;29;20193;-75
2022/05/09 14:11:07;;;;;;;8.95;8.35;;;31.10;49.60;;;;;;4933555;29;20194;-75
2022/05/09 14:13:45;;;;;;;6.63;6.03;;;31.30;48.60;;;;;;4933117;29;20250;-75
2022/05/09 14:16:26;;;;;;;6.97;6.32;;;32.00;47.90;;;;;;4933645;29;20669;-75
2022/05/09 14:19:03;;;;;;;7.13;6.63;;;31.70;47.20;;;;;;4934800;28;20186;-75
2022/05/09 14:21:42;;;;;;;6.72;5.85;;;31.90;47.20;;;;;;4935058;28;20547;-75
2022/05/09 14:24:10;;;;;;;8.27;7.75;;;31.70;47.70;;;;;;4934906;28;20214;-76
2022/05/09 14:29:38;;;;;;;5.95;5.65;;;30.90;47.00;;;;;;4934718;29;20194;-75
2022/05/09 14:32:28;;;;;;;7.63;7.13;;;30.80;47.80;;;;;;4935198;28;20265;-76
2022/05/09 14:34:56;;;;;;;6.10;5.80;;;31.00;47.40;;;;;;4933897;29;20198;-76
2022/05/09 14:37:27;;;;;;;8.02;7.53;;;31.80;46.40;;;;;;4933341;29;20673;-76
2022/05/09 14:40:05;;;;;;;12.10;11.40;;;32.20;45.70;;;;;;4933601;29;20186;-76
2022/05/09 14:42:33;;;;;;;10.02;9.25;;;32.90;45.20;;;;;;4934793;29;20257;-76
2022/05/09 14:45:02;;;;;;;10.07;9.52;;;32.60;43.90;;;;;;4933471;29;20202;-76
2022/05/09 14:47:49;;;;;;;8.93;8.35;;;32.40;44.90;;;;;;4934186;29;20636;-76
2022/05/09 14:50:23;;;;;;;5.30;4.97;;;32.90;43.70;;;;;;4934686;29;20198;-76
2022/05/09 14:53:01;;;;;;;4.85;4.55;;;33.30;42.90;;;;;;4934781;29;20744;-76
2022/05/09 14:58:49;;;;;;;5.80;5.20;;;33.90;42.80;;;;;;4934607;29;20182;-76
2022/05/09 15:01:21;;;;;;;4.65;4.35;;;33.40;42.90;;;;;;4933557;29;20272;-76
2022/05/09 15:03:50;;;;;;;4.82;4.55;;;32.60;43.40;;;;;;4949510;28;20190;-76
2022/05/09 15:06:18;;;;;;;5.18;4.85;;;32.00;43.60;;;;;;4935904;28;20186;-76
2022/05/09 15:08:44;;;;;;;19.73;6.03;;;32.40;43.60;;;;;;4932992;29;20190;-76
2022/05/09 15:11:20;;;;;;;6.10;5.70;;;32.90;42.10;;;;;;4934275;29;20583;-76
2022/05/09 15:13:47;;;;;;;6.07;5.55;;;33.50;41.50;;;;;;4933433;29;20186;-76
2022/05/09 15:16:16;;;;;;;5.47;5.10;;;33.50;41.60;;;;;;4934015;29;20182;-76
2022/05/09 15:18:43;;;;;;;6.28;5.97;;;33.30;40.80;;;;;;4933986;29;20178;-76
2022/05/09 15:21:10;;;;;;;5.38;5.07;;;33.10;40.00;;;;;;4948895;29;20277;-76
2022/05/09 15:23:36;;;;;;;5.82;5.32;;;33.00;41.40;;;;;;4949196;29;20292;-76
2022/05/09 15:26:02;;;;;;;6.90;6.40;;;33.90;40.10;;;;;;4972912;23;20650;-74
2022/05/09 15:28:34;;;;;;;6.53;5.90;;;33.90;39.70;;;;;;4950955;29;20729;-73
2022/05/09 15:31:07;;;;;;;6.00;5.60;;;34.20;39.40;;;;;;4952821;28;20205;-74
2022/05/09 15:33:33;;;;;;;5.90;5.45;;;34.50;38.40;;;;;;4951597;29;20186;-74
2022/05/09 15:36:00;;;;;;;10.85;10.18;;;33.80;39.40;;;;;;4952779;29;20378;-75
2022/05/09 15:38:26;;;;;;;6.82;6.30;;;33.40;41.00;;;;;;4952178;29;20190;-76
2022/05/09 15:40:54;;;;;;;6.53;6.03;;;34.30;38.80;;;;;;4952717;28;20622;-73
2022/05/09 15:43:27;;;;;;;5.75;5.35;;;34.70;39.20;;;;;;4952860;29;20177;-74
2022/05/09 15:45:57;;;;;;;7.85;7.38;;;34.40;40.00;;;;;;4952625;28;20239;-73
2022/05/09 15:48:25;;;;;;;6.80;6.35;;;33.70;41.30;;;;;;4952359;28;20186;-74
2022/05/09 15:50:56;;;;;;;6.07;5.57;;;32.40;43.90;;;;;;4952724;29;20714;-74
2022/05/09 15:53:23;;;;;;;6.30;5.50;;;32.30;44.10;;;;;;4952355;29;20186;-73
2022/05/09 15:55:54;;;;;;;5.65;5.20;;;32.30;44.20;;;;;;4959212;28;20201;-73
2022/05/09 15:58:20;;;;;;;13.32;12.63;;;31.50;44.70;;;;;;4962647;29;20189;-75
2022/05/09 16:00:46;;;;;;;20.88;19.58;;;28.80;48.20;;;;;;4952273;28;20177;-73
2022/05/09 16:03:23;;;;;;;11.85;11.15;;;26.90;52.70;;;;;;4960864;29;20182;-77
2022/05/09 16:13:46;;;;;;;7.75;7.25;;;27.00;54.00;;;;;;4932547;29;20234;-77
2022/05/09 16:16:21;;;;;;;9.57;8.88;;;27.80;51.70;;;;;;4930797;29;20677;-77
2022/05/09 16:18:49;;;;;;;10.30;9.60;;;28.30;50.40;;;;;;4941947;29;20268;-77
2022/05/09 16:21:15;;;;;;;23.40;22.13;;;28.40;49.80;;;;;;4951927;28;20185;-75
2022/05/09 16:23:41;;;;;;;13.15;12.25;;;28.60;49.10;;;;;;4952530;29;20592;-76
2022/05/09 16:26:09;;;;;;;16.92;15.88;;;28.30;49.80;;;;;;4948274;28;20218;-78
2022/05/09 16:28:36;;;;;;;16.77;15.88;;;28.60;49.30;;;;;;4952760;28;20197;-78